sensor_id;sensor_type;location;lat;lon;timestamp;pressure;altitude;pressure_sealevel;temperature;humidity
54503;BME280;40411;50.090;21.954;2022-09-09T00:00:43;153266.22;;;16.79;100.00
54503;BME280;40411;50.090;21.954;2022-09-09T00:03:34;153281.66;;;16.85;100.00
54503;BME280;40411;50.090;21.954;2022-09-09T00:06:08;153270.09;;;16.81;100.00
54503;BME280;40411;50.090;21.954;2022-09-09T00:09:21;153234.09;;;16.66;100.00
54503;BME280;40411;50.090;21.954;2022-09-09T00:11:51;153204.50;;;16.54;100.00
54503;BME280;40411;50.090;21.954;2022-09-09T00:14:25;153259.81;;;16.77;100.00
54503;BME280;40411;50.090;21.954;2022-09-09T00:16:59;153253.31;;;16.74;100.00
54503;BME280;40411;50.090;21.954;2022-09-09T00:24:44;153263.69;;;16.78;100.00
54503;BME280;40411;50.090;21.954;2022-09-09T00:27:18;153210.94;;;16.57;100.00
54503;BME280;40411;50.090;21.954;2022-09-09T00:29:57;153252.06;;;16.73;100.00
54503;BME280;40411;50.090;21.954;2022-09-09T00:32:28;153266.22;;;16.79;100.00
54503;BME280;40411;50.090;21.954;2022-09-09T00:34:59;153261.13;;;16.77;100.00
54503;BME280;40411;50.090;21.954;2022-09-09T00:37:28;153271.38;;;16.81;100.00
54503;BME280;40411;50.090;21.954;2022-09-09T00:40:01;153219.97;;;16.61;100.00
54503;BME280;40411;50.090;21.954;2022-09-09T00:42:41;153286.78;;;16.87;100.00
54503;BME280;40411;50.090;21.954;2022-09-09T00:47:45;153209.66;;;16.57;100.00
54503;BME280;40411;50.090;21.954;2022-09-09T00:55:59;153281.66;;;16.85;100.00
54503;BME280;40411;50.090;21.954;2022-09-09T00:58:31;153209.66;;;16.57;100.00
54503;BME280;40411;50.090;21.954;2022-09-09T01:01:11;153232.75;;;16.66;100.00
54503;BME280;40411;50.090;21.954;2022-09-09T01:03:53;153255.94;;;16.75;100.00
54503;BME280;40411;50.090;21.954;2022-09-09T01:06:33;153261.13;;;16.77;100.00
54503;BME280;40411;50.090;21.954;2022-09-09T01:11:42;153299.66;;;16.92;100.00
54503;BME280;40411;50.090;21.954;2022-09-09T01:14:19;153289.41;;;16.88;100.00
54503;BME280;40411;50.090;21.954;2022-09-09T01:16:54;153291.94;;;16.89;100.00
54503;BME280;40411;50.090;21.954;2022-09-09T01:19:33;153286.78;;;16.87;100.00
54503;BME280;40411;50.090;21.954;2022-09-09T01:28:06;153302.22;;;16.93;100.00
54503;BME280;40411;50.090;21.954;2022-09-09T01:30:38;153320.22;;;17.01;100.00
54503;BME280;40411;50.090;21.954;2022-09-09T01:33:10;153271.38;;;16.81;100.00
54503;BME280;40411;50.090;21.954;2022-09-09T01:35:52;153266.22;;;16.79;100.00
54503;BME280;40411;50.090;21.954;2022-09-09T01:38:27;153289.41;;;16.88;100.00
54503;BME280;40411;50.090;21.954;2022-09-09T01:40:54;153237.91;;;16.68;100.00
54503;BME280;40411;50.090;21.954;2022-09-09T01:43:25;153279.09;;;16.84;100.00
54503;BME280;40411;50.090;21.954;2022-09-09T01:45:53;153258.47;;;16.76;100.00
54503;BME280;40411;50.090;21.954;2022-09-09T01:48:22;153325.38;;;17.03;100.00
54503;BME280;40411;50.090;21.954;2022-09-09T01:50:59;153329.19;;;17.04;100.00
54503;BME280;40411;50.090;21.954;2022-09-09T01:53:25;153288.06;;;16.88;100.00
54503;BME280;40411;50.090;21.954;2022-09-09T01:56:07;153363.91;;;17.18;100.00
54503;BME280;40411;50.090;21.954;2022-09-09T01:58:56;153315.06;;;16.98;100.00
54503;BME280;40411;50.090;21.954;2022-09-09T02:01:29;153338.22;;;17.08;100.00
54503;BME280;40411;50.090;21.954;2022-09-09T02:04:15;153385.75;;;17.27;100.00
54503;BME280;40411;50.090;21.954;2022-09-09T02:06:45;153322.78;;;17.02;100.00
54503;BME280;40411;50.090;21.954;2022-09-09T02:09:24;153317.66;;;17.00;100.00
54503;BME280;40411;50.090;21.954;2022-09-09T02:12:13;153308.63;;;16.96;100.00
54503;BME280;40411;50.090;21.954;2022-09-09T02:14:51;153315.06;;;16.98;100.00
54503;BME280;40411;50.090;21.954;2022-09-09T02:17:25;153300.94;;;16.93;100.00
54503;BME280;40411;50.090;21.954;2022-09-09T02:20:06;153345.94;;;17.11;100.00
54503;BME280;40411;50.090;21.954;2022-09-09T02:22:48;153252.06;;;16.73;100.00
54503;BME280;40411;50.090;21.954;2022-09-09T02:25:18;153235.38;;;16.67;100.00
54503;BME280;40411;50.090;21.954;2022-09-09T02:27:47;153209.66;;;16.57;100.00
54503;BME280;40411;50.090;21.954;2022-09-09T02:30:15;153214.81;;;16.59;100.00
54503;BME280;40411;50.090;21.954;2022-09-09T02:32:50;153275.25;;;16.83;100.00
54503;BME280;40411;50.090;21.954;2022-09-09T02:35:21;153244.34;;;16.70;100.00
54503;BME280;40411;50.090;21.954;2022-09-09T02:37:52;153248.22;;;16.72;100.00
54503;BME280;40411;50.090;21.954;2022-09-09T02:40:19;153221.22;;;16.61;100.00
54503;BME280;40411;50.090;21.954;2022-09-09T02:42:53;153200.69;;;16.53;100.00
54503;BME280;40411;50.090;21.954;2022-09-09T02:45:24;153198.13;;;16.52;100.00
54503;BME280;40411;50.090;21.954;2022-09-09T02:50:27;153284.25;;;16.86;100.00
54503;BME280;40411;50.090;21.954;2022-09-09T02:53:21;153299.66;;;16.92;100.00
54503;BME280;40411;50.090;21.954;2022-09-09T02:56:09;153288.06;;;16.88;100.00
54503;BME280;40411;50.090;21.954;2022-09-09T02:58:42;153315.06;;;16.98;100.00
54503;BME280;40411;50.090;21.954;2022-09-09T03:01:08;153304.81;;;16.94;100.00
54503;BME280;40411;50.090;21.954;2022-09-09T03:03:34;153254.66;;;16.74;100.00
54503;BME280;40411;50.090;21.954;2022-09-09T03:06:05;153268.84;;;16.80;100.00
54503;BME280;40411;50.090;21.954;2022-09-09T03:08:31;153326.66;;;17.03;100.00
54503;BME280;40411;50.090;21.954;2022-09-09T03:10:59;153273.94;;;16.82;100.00
54503;BME280;40411;50.090;21.954;2022-09-09T03:13:28;153280.38;;;16.85;100.00
54503;BME280;40411;50.090;21.954;2022-09-09T03:15:55;153313.78;;;16.98;100.00
54503;BME280;40411;50.090;21.954;2022-09-09T03:18:21;153302.22;;;16.93;100.00
54503;BME280;40411;50.090;21.954;2022-09-09T03:20:50;153317.66;;;17.00;100.00
54503;BME280;40411;50.090;21.954;2022-09-09T03:23:18;153280.38;;;16.85;100.00
54503;BME280;40411;50.090;21.954;2022-09-09T03:25:51;153246.91;;;16.71;100.00
54503;BME280;40411;50.090;21.954;2022-09-09T03:28:23;153259.81;;;16.77;100.00
54503;BME280;40411;50.090;21.954;2022-09-09T03:31:02;153322.78;;;17.02;100.00
54503;BME280;40411;50.090;21.954;2022-09-09T03:33:32;153266.22;;;16.79;100.00
54503;BME280;40411;50.090;21.954;2022-09-09T03:35:58;153142.88;;;16.30;100.00
54503;BME280;40411;50.090;21.954;2022-09-09T03:38:24;153196.78;;;16.51;100.00
54503;BME280;40411;50.090;21.954;2022-09-09T03:40:52;153176.25;;;16.43;100.00
54503;BME280;40411;50.090;21.954;2022-09-09T03:43:22;153227.66;;;16.64;100.00
54503;BME280;40411;50.090;21.954;2022-09-09T03:45:50;153222.50;;;16.62;100.00
54503;BME280;40411;50.090;21.954;2022-09-09T03:48:17;153243.06;;;16.70;100.00
54503;BME280;40411;50.090;21.954;2022-09-09T03:50:47;153249.50;;;16.72;100.00
54503;BME280;40411;50.090;21.954;2022-09-09T03:53:14;153263.69;;;16.78;100.00
54503;BME280;40411;50.090;21.954;2022-09-09T03:55:45;153240.53;;;16.69;100.00
54503;BME280;40411;50.090;21.954;2022-09-09T03:58:15;153172.41;;;16.42;100.00
54503;BME280;40411;50.090;21.954;2022-09-09T04:00:41;153230.22;;;16.65;100.00
54503;BME280;40411;50.090;21.954;2022-09-09T04:03:11;153246.91;;;16.71;100.00
54503;BME280;40411;50.090;21.954;2022-09-09T04:05:39;153261.13;;;16.77;100.00
54503;BME280;40411;50.090;21.954;2022-09-09T04:08:06;153272.66;;;16.82;100.00
54503;BME280;40411;50.090;21.954;2022-09-09T04:10:33;153244.34;;;16.70;100.00
54503;BME280;40411;50.090;21.954;2022-09-09T04:12:59;153286.78;;;16.87;100.00
54503;BME280;40411;50.090;21.954;2022-09-09T04:15:26;153281.66;;;16.85;100.00
54503;BME280;40411;50.090;21.954;2022-09-09T04:17:52;153282.97;;;16.86;100.00
54503;BME280;40411;50.090;21.954;2022-09-09T04:20:17;153240.53;;;16.69;100.00
54503;BME280;40411;50.090;21.954;2022-09-09T04:22:44;153276.53;;;16.83;100.00
54503;BME280;40411;50.090;21.954;2022-09-09T04:25:10;153333.09;;;17.06;100.00
54503;BME280;40411;50.090;21.954;2022-09-09T04:27:36;153297.09;;;16.91;100.00
54503;BME280;40411;50.090;21.954;2022-09-09T04:30:02;153255.94;;;16.75;100.00
54503;BME280;40411;50.090;21.954;2022-09-09T04:32:32;153300.94;;;16.93;100.00
54503;BME280;40411;50.090;21.954;2022-09-09T04:34:58;153366.50;;;17.19;100.00
54503;BME280;40411;50.090;21.954;2022-09-09T04:37:24;153335.63;;;17.07;100.00
54503;BME280;40411;50.090;21.954;2022-09-09T04:39:51;153358.75;;;17.16;100.00
54503;BME280;40411;50.090;21.954;2022-09-09T04:42:17;153340.78;;;17.09;100.00
54503;BME280;40411;50.090;21.954;2022-09-09T04:44:46;153351.06;;;17.13;100.00
54503;BME280;40411;50.090;21.954;2022-09-09T04:47:12;153335.63;;;17.07;100.00
54503;BME280;40411;50.090;21.954;2022-09-09T04:49:41;153390.91;;;17.29;100.00
54503;BME280;40411;50.090;21.954;2022-09-09T04:52:07;153363.91;;;17.18;100.00
54503;BME280;40411;50.090;21.954;2022-09-09T04:54:34;153374.22;;;17.22;100.00
54503;BME280;40411;50.090;21.954;2022-09-09T04:57:00;153348.50;;;17.12;100.00
54503;BME280;40411;50.090;21.954;2022-09-09T04:59:27;153291.94;;;16.89;100.00
54503;BME280;40411;50.090;21.954;2022-09-09T05:01:56;153272.66;;;16.82;100.00
54503;BME280;40411;50.090;21.954;2022-09-09T05:04:22;153349.78;;;17.12;100.00
54503;BME280;40411;50.090;21.954;2022-09-09T05:06:48;153345.94;;;17.11;100.00
54503;BME280;40411;50.090;21.954;2022-09-09T05:09:14;153345.94;;;17.11;100.00
54503;BME280;40411;50.090;21.954;2022-09-09T05:11:41;153369.06;;;17.20;100.00
54503;BME280;40411;50.090;21.954;2022-09-09T05:14:17;153327.94;;;17.04;100.00
54503;BME280;40411;50.090;21.954;2022-09-09T05:16:46;153417.91;;;17.39;100.00
54503;BME280;40411;50.090;21.954;2022-09-09T05:19:13;153394.78;;;17.30;100.00
54503;BME280;40411;50.090;21.954;2022-09-09T05:21:46;153356.19;;;17.15;100.00
54503;BME280;40411;50.090;21.954;2022-09-09T05:24:14;153394.78;;;17.30;100.00
54503;BME280;40411;50.090;21.954;2022-09-09T05:26:40;153387.03;;;17.27;100.00
54503;BME280;40411;50.090;21.954;2022-09-09T05:29:07;153333.09;;;17.06;100.00
54503;BME280;40411;50.090;21.954;2022-09-09T05:31:33;153372.88;;;17.22;100.00
54503;BME280;40411;50.090;21.954;2022-09-09T05:34:03;153398.63;;;17.32;100.00
54503;BME280;40411;50.090;21.954;2022-09-09T05:36:29;153415.34;;;17.38;100.00
54503;BME280;40411;50.090;21.954;2022-09-09T05:38:56;153435.88;;;17.47;100.00
54503;BME280;40411;50.090;21.954;2022-09-09T05:41:24;153489.88;;;17.68;100.00
54503;BME280;40411;50.090;21.954;2022-09-09T05:43:54;153424.34;;;17.42;100.00
54503;BME280;40411;50.090;21.954;2022-09-09T05:46:23;153432.06;;;17.45;100.00
54503;BME280;40411;50.090;21.954;2022-09-09T05:48:52;153448.75;;;17.52;100.00
54503;BME280;40411;50.090;21.954;2022-09-09T05:51:25;153412.75;;;17.37;100.00
54503;BME280;40411;50.090;21.954;2022-09-09T05:53:54;153369.06;;;17.20;100.00
54503;BME280;40411;50.090;21.954;2022-09-09T05:56:30;153316.34;;;16.99;100.00
54503;BME280;40411;50.090;21.954;2022-09-09T05:58:58;153412.75;;;17.37;100.00
54503;BME280;40411;50.090;21.954;2022-09-09T06:01:35;153500.19;;;17.72;100.00
54503;BME280;40411;50.090;21.954;2022-09-09T06:04:02;153554.22;;;17.94;100.00
54503;BME280;40411;50.090;21.954;2022-09-09T06:06:35;153577.41;;;18.03;100.00
54503;BME280;40411;50.090;21.954;2022-09-09T06:09:04;153628.81;;;18.23;100.00
54503;BME280;40411;50.090;21.954;2022-09-09T06:11:38;153605.69;;;18.14;100.00
54503;BME280;40411;50.090;21.954;2022-09-09T06:14:05;153637.81;;;18.27;100.00
54503;BME280;40411;50.090;21.954;2022-09-09T06:16:31;153646.84;;;18.30;100.00
54503;BME280;40411;50.090;21.954;2022-09-09T06:19:04;153675.16;;;18.42;100.00
54503;BME280;40411;50.090;21.954;2022-09-09T06:21:34;153716.28;;;18.58;100.00
54503;BME280;40411;50.090;21.954;2022-09-09T06:24:02;153778.06;;;18.83;100.00
54503;BME280;40411;50.090;21.954;2022-09-09T06:26:33;153797.41;;;18.90;100.00
54503;BME280;40411;50.090;21.954;2022-09-09T06:29:03;153837.28;;;19.06;100.00
54503;BME280;40411;50.090;21.954;2022-09-09T06:31:32;153868.16;;;19.18;100.00
54503;BME280;40411;50.090;21.954;2022-09-09T06:34:07;153913.22;;;19.36;100.00
54503;BME280;40411;50.090;21.954;2022-09-09T06:36:38;153917.06;;;19.38;100.00
54503;BME280;40411;50.090;21.954;2022-09-09T06:39:06;153913.22;;;19.36;100.00
54503;BME280;40411;50.090;21.954;2022-09-09T06:41:33;153910.63;;;19.35;100.00
54503;BME280;40411;50.090;21.954;2022-09-09T06:44:02;153913.22;;;19.36;100.00
54503;BME280;40411;50.090;21.954;2022-09-09T06:46:39;153905.47;;;19.33;100.00
54503;BME280;40411;50.090;21.954;2022-09-09T06:49:07;153963.41;;;19.56;100.00
54503;BME280;40411;50.090;21.954;2022-09-09T06:51:36;154033.00;;;19.84;100.00
54503;BME280;40411;50.090;21.954;2022-09-09T06:54:04;154058.69;;;19.94;100.00
54503;BME280;40411;50.090;21.954;2022-09-09T06:56:33;154062.59;;;19.96;100.00
54503;BME280;40411;50.090;21.954;2022-09-09T06:59:04;154020.09;;;19.79;100.00
54503;BME280;40411;50.090;21.954;2022-09-09T07:01:37;154081.91;;;20.03;100.00
54503;BME280;40411;50.090;21.954;2022-09-09T07:04:08;153937.66;;;19.46;100.00
54503;BME280;40411;50.090;21.954;2022-09-09T07:06:38;153910.63;;;19.35;100.00
54503;BME280;40411;50.090;21.954;2022-09-09T07:09:10;153910.63;;;19.35;100.00
54503;BME280;40411;50.090;21.954;2022-09-09T07:11:45;153915.78;;;19.37;100.00
54503;BME280;40411;50.090;21.954;2022-09-09T07:14:12;153881.03;;;19.24;100.00
54503;BME280;40411;50.090;21.954;2022-09-09T07:16:44;153922.22;;;19.40;100.00
54503;BME280;40411;50.090;21.954;2022-09-09T07:19:11;154018.81;;;19.78;100.00
54503;BME280;40411;50.090;21.954;2022-09-09T07:21:38;153940.22;;;19.47;100.00
54503;BME280;40411;50.090;21.954;2022-09-09T07:24:07;154044.53;;;19.89;100.00
54503;BME280;40411;50.090;21.954;2022-09-09T07:26:37;154166.91;;;20.37;100.00
54503;BME280;40411;50.090;21.954;2022-09-09T07:29:03;154092.19;;;20.07;100.00
54503;BME280;40411;50.090;21.954;2022-09-09T07:31:33;154134.69;;;20.24;100.00
54503;BME280;40411;50.090;21.954;2022-09-09T07:34:01;154139.84;;;20.26;100.00
54503;BME280;40411;50.090;21.954;2022-09-09T07:36:30;154210.72;;;20.55;100.00
54503;BME280;40411;50.090;21.954;2022-09-09T07:39:00;154200.38;;;20.50;100.00
54503;BME280;40411;50.090;21.954;2022-09-09T07:41:34;154239.06;;;20.66;100.00
54503;BME280;40411;50.090;21.954;2022-09-09T07:44:13;154228.78;;;20.62;100.00
54503;BME280;40411;50.090;21.954;2022-09-09T07:46:41;154316.34;;;20.96;100.00
54503;BME280;40411;50.090;21.954;2022-09-09T07:49:10;154412.97;;;21.35;100.00
54503;BME280;40411;50.090;21.954;2022-09-09T07:51:39;154521.25;;;21.78;100.00
54503;BME280;40411;50.090;21.954;2022-09-09T07:54:08;154482.63;;;21.62;100.00
54503;BME280;40411;50.090;21.954;2022-09-09T07:56:37;154550.88;;;21.90;100.00
54503;BME280;40411;50.090;21.954;2022-09-09T07:59:04;154663.09;;;22.34;100.00
54503;BME280;40411;50.090;21.954;2022-09-09T08:01:38;154513.53;;;21.75;100.00
54503;BME280;40411;50.090;21.954;2022-09-09T08:04:09;154492.91;;;21.67;100.00
54503;BME280;40411;50.090;21.954;2022-09-09T08:06:39;154709.53;;;22.52;100.00
54503;BME280;40411;50.090;21.954;2022-09-09T08:09:08;154931.44;;;23.40;100.00
54503;BME280;40411;50.090;21.954;2022-09-09T08:11:36;154749.50;;;22.68;100.00
54503;BME280;40411;50.090;21.954;2022-09-09T08:14:03;154741.78;;;22.65;100.00
54503;BME280;40411;50.090;21.954;2022-09-09T08:16:32;154743.06;;;22.66;100.00
54503;BME280;40411;50.090;21.954;2022-09-09T08:19:00;154538.03;;;21.84;100.00
54503;BME280;40411;50.090;21.954;2022-09-09T08:21:30;154269.94;;;20.78;100.00
54503;BME280;40411;50.090;21.954;2022-09-09T08:24:00;154316.34;;;20.96;100.00
54503;BME280;40411;50.090;21.954;2022-09-09T08:26:28;154343.41;;;21.07;100.00
54503;BME280;40411;50.090;21.954;2022-09-09T08:28:56;154598.59;;;22.08;100.00
54503;BME280;40411;50.090;21.954;2022-09-09T08:31:29;154940.44;;;23.44;100.00
54503;BME280;40411;50.090;21.954;2022-09-09T08:33:58;154811.41;;;22.93;100.00
54503;BME280;40411;50.090;21.954;2022-09-09T08:36:32;154679.88;;;22.41;100.00
54503;BME280;40411;50.090;21.954;2022-09-09T08:39:03;154552.22;;;21.90;100.00
54503;BME280;40411;50.090;21.954;2022-09-09T08:44:19;154677.28;;;22.40;100.00
54503;BME280;40411;50.090;21.954;2022-09-09T08:52:19;156038.53;;;27.79;92.87
54503;BME280;40411;50.090;21.954;2022-09-09T08:54:45;155366.41;;;25.13;100.00
54503;BME280;40411;50.090;21.954;2022-09-09T08:57:21;154763.69;;;22.74;100.00
54503;BME280;40411;50.090;21.954;2022-09-09T08:59:54;154850.13;;;23.08;100.00
54503;BME280;40411;50.090;21.954;2022-09-09T09:02:45;154688.88;;;22.44;100.00
54503;BME280;40411;50.090;21.954;2022-09-09T09:07:49;154691.44;;;22.45;100.00
54503;BME280;40411;50.090;21.954;2022-09-09T09:13:34;154517.41;;;21.76;100.00
54503;BME280;40411;50.090;21.954;2022-09-09T09:18:42;154837.22;;;23.03;100.00
54503;BME280;40411;50.090;21.954;2022-09-09T09:21:25;154830.78;;;23.01;100.00
54503;BME280;40411;50.090;21.954;2022-09-09T09:23:57;155167.56;;;24.34;100.00
54503;BME280;40411;50.090;21.954;2022-09-09T09:26:31;155411.69;;;25.31;100.00
54503;BME280;40411;50.090;21.954;2022-09-09T09:29:08;155255.44;;;24.69;100.00
54503;BME280;40411;50.090;21.954;2022-09-09T09:31:35;155446.56;;;25.45;96.38
54503;BME280;40411;50.090;21.954;2022-09-09T09:34:01;155578.38;;;25.97;98.21
54503;BME280;40411;50.090;21.954;2022-09-09T09:36:43;155875.59;;;27.14;91.01
54503;BME280;40411;50.090;21.954;2022-09-09T09:39:29;155489.19;;;25.61;92.86
54503;BME280;40411;50.090;21.954;2022-09-09T09:42:11;155688.16;;;26.40;87.21
54503;BME280;40411;50.090;21.954;2022-09-09T09:44:43;155998.44;;;27.63;84.33
54503;BME280;40411;50.090;21.954;2022-09-09T09:47:16;155791.59;;;26.81;85.30
54503;BME280;40411;50.090;21.954;2022-09-09T09:52:24;155680.41;;;26.37;90.47
54503;BME280;40411;50.090;21.954;2022-09-09T09:54:52;155608.06;;;26.08;91.40
54503;BME280;40411;50.090;21.954;2022-09-09T09:57:26;155374.25;;;25.16;92.91
54503;BME280;40411;50.090;21.954;2022-09-09T10:00:15;155635.22;;;26.19;90.72
54503;BME280;40411;50.090;21.954;2022-09-09T10:02:48;155789.03;;;26.80;85.31
54503;BME280;40411;50.090;21.954;2022-09-09T10:05:25;156004.91;;;27.66;89.01
54503;BME280;40411;50.090;21.954;2022-09-09T10:13:14;155513.69;;;25.71;85.81
54503;BME280;40411;50.090;21.954;2022-09-09T10:15:56;155732.13;;;26.58;78.38
54503;BME280;40411;50.090;21.954;2022-09-09T10:18:47;155923.50;;;27.33;80.63
54503;BME280;40411;50.090;21.954;2022-09-09T10:24:27;155502.09;;;25.67;84.63
54503;BME280;40411;50.090;21.954;2022-09-09T10:27:11;155450.41;;;25.46;87.36
54503;BME280;40411;50.090;21.954;2022-09-09T10:30:30;155260.56;;;24.71;86.73
54503;BME280;40411;50.090;21.954;2022-09-09T10:33:09;155199.91;;;24.47;86.06
54503;BME280;40411;50.090;21.954;2022-09-09T10:35:52;155069.50;;;23.95;85.00
54503;BME280;40411;50.090;21.954;2022-09-09T10:38:33;155082.41;;;24.00;86.54
54503;BME280;40411;50.090;21.954;2022-09-09T10:41:15;154950.75;;;23.48;88.03
54503;BME280;40411;50.090;21.954;2022-09-09T10:52:29;155145.63;;;24.25;85.04
54503;BME280;40411;50.090;21.954;2022-09-09T10:57:48;155159.84;;;24.31;86.24
54503;BME280;40411;50.090;21.954;2022-09-09T11:00:19;155110.78;;;24.12;86.41
54503;BME280;40411;50.090;21.954;2022-09-09T11:02:51;155128.88;;;24.19;89.11
54503;BME280;40411;50.090;21.954;2022-09-09T11:05:20;155097.88;;;24.06;85.23
54503;BME280;40411;50.090;21.954;2022-09-09T11:08:09;155131.44;;;24.20;86.02
54503;BME280;40411;50.090;21.954;2022-09-09T11:18:49;155073.38;;;23.97;86.87
54503;BME280;40411;50.090;21.954;2022-09-09T11:21:32;155148.19;;;24.26;81.52
54503;BME280;40411;50.090;21.954;2022-09-09T11:24:04;155265.72;;;24.73;85.55
54503;BME280;40411;50.090;21.954;2022-09-09T11:26:41;155332.88;;;25.00;80.61
54503;BME280;40411;50.090;21.954;2022-09-09T11:34:39;155203.75;;;24.48;82.02
54503;BME280;40411;50.090;21.954;2022-09-09T11:42:49;155059.19;;;23.91;87.04
54503;BME280;40411;50.090;21.954;2022-09-09T11:45:27;155007.56;;;23.71;87.64
54503;BME280;40411;50.090;21.954;2022-09-09T11:47:57;155038.53;;;23.83;87.22
54503;BME280;40411;50.090;21.954;2022-09-09T11:52:49;154986.91;;;23.62;92.52
54503;BME280;40411;50.090;21.954;2022-09-09T11:55:27;155061.75;;;23.92;89.53
54503;BME280;40411;50.090;21.954;2022-09-09T11:58:04;155059.19;;;23.91;91.33
54503;BME280;40411;50.090;21.954;2022-09-09T12:00:37;154995.91;;;23.66;91.16
54503;BME280;40411;50.090;21.954;2022-09-09T12:03:04;154985.56;;;23.62;92.15
54503;BME280;40411;50.090;21.954;2022-09-09T12:05:45;154992.03;;;23.64;92.94
54503;BME280;40411;50.090;21.954;2022-09-09T12:08:17;155072.09;;;23.96;91.02
54503;BME280;40411;50.090;21.954;2022-09-09T12:10:56;155145.63;;;24.25;92.56
54503;BME280;40411;50.090;21.954;2022-09-09T12:13:24;155361.28;;;25.11;87.46
54503;BME280;40411;50.090;21.954;2022-09-09T12:15:56;155410.41;;;25.30;86.71
54503;BME280;40411;50.090;21.954;2022-09-09T12:18:36;155420.72;;;25.34;82.60
54503;BME280;40411;50.090;21.954;2022-09-09T12:23:47;155319.97;;;24.94;87.01
54503;BME280;40411;50.090;21.954;2022-09-09T12:31:46;155379.38;;;25.18;82.76
54503;BME280;40411;50.090;21.954;2022-09-09T12:34:21;155487.91;;;25.61;83.67
54503;BME280;40411;50.090;21.954;2022-09-09T12:36:56;155733.47;;;26.58;78.16
54503;BME280;40411;50.090;21.954;2022-09-09T12:39:38;155804.53;;;26.86;76.16
54503;BME280;40411;50.090;21.954;2022-09-09T12:42:19;155928.63;;;27.35;73.96
54503;BME280;40411;50.090;21.954;2022-09-09T12:45:18;156010.09;;;27.68;71.89
54503;BME280;40411;50.090;21.954;2022-09-09T12:47:54;155917.03;;;27.31;69.98
54503;BME280;40411;50.090;21.954;2022-09-09T12:52:56;155756.69;;;26.67;75.94
54503;BME280;40411;50.090;21.954;2022-09-09T12:55:37;155593.88;;;26.03;76.07
54503;BME280;40411;50.090;21.954;2022-09-09T12:58:06;155518.88;;;25.73;78.64
54503;BME280;40411;50.090;21.954;2022-09-09T13:00:33;155398.78;;;25.26;78.49
54503;BME280;40411;50.090;21.954;2022-09-09T13:03:01;155194.75;;;24.45;81.37
54503;BME280;40411;50.090;21.954;2022-09-09T13:05:34;155091.44;;;24.04;83.79
54503;BME280;40411;50.090;21.954;2022-09-09T13:08:11;155123.72;;;24.17;80.21
54503;BME280;40411;50.090;21.954;2022-09-09T13:13:23;155103.06;;;24.08;81.29
54503;BME280;40411;50.090;21.954;2022-09-09T13:15:56;155092.75;;;24.04;80.95
54503;BME280;40411;50.090;21.954;2022-09-09T13:18:25;154944.28;;;23.46;85.26
54503;BME280;40411;50.090;21.954;2022-09-09T13:20:53;154980.44;;;23.60;85.65
54503;BME280;40411;50.090;21.954;2022-09-09T13:23:20;154974.00;;;23.57;89.50
54503;BME280;40411;50.090;21.954;2022-09-09T13:25:57;154997.19;;;23.67;92.20
54503;BME280;40411;50.090;21.954;2022-09-09T13:28:26;155020.47;;;23.76;87.83
54503;BME280;40411;50.090;21.954;2022-09-09T13:31:02;155038.53;;;23.83;81.51
54503;BME280;40411;50.090;21.954;2022-09-09T13:33:34;154976.56;;;23.58;83.97
54503;BME280;40411;50.090;21.954;2022-09-09T13:36:10;154953.34;;;23.49;84.83
54503;BME280;40411;50.090;21.954;2022-09-09T13:38:40;155024.34;;;23.77;84.01
54503;BME280;40411;50.090;21.954;2022-09-09T13:41:23;155227.03;;;24.58;78.40
54503;BME280;40411;50.090;21.954;2022-09-09T13:43:50;155279.94;;;24.79;80.29
54503;BME280;40411;50.090;21.954;2022-09-09T13:46:37;155446.56;;;25.45;85.42
54503;BME280;40411;50.090;21.954;2022-09-09T13:49:23;155549.94;;;25.85;76.81
54503;BME280;40411;50.090;21.954;2022-09-09T13:52:10;155357.41;;;25.09;76.73
54503;BME280;40411;50.090;21.954;2022-09-09T13:54:37;155397.50;;;25.25;79.27
54503;BME280;40411;50.090;21.954;2022-09-09T13:57:03;155411.69;;;25.31;79.39
54503;BME280;40411;50.090;21.954;2022-09-09T13:59:30;155490.47;;;25.62;80.29
54503;BME280;40411;50.090;21.954;2022-09-09T14:01:57;155553.81;;;25.87;76.39
54503;BME280;40411;50.090;21.954;2022-09-09T14:04:23;155547.34;;;25.84;73.75
54503;BME280;40411;50.090;21.954;2022-09-09T14:06:50;155670.09;;;26.33;75.55
54503;BME280;40411;50.090;21.954;2022-09-09T14:09:17;155758.00;;;26.68;75.55
54503;BME280;40411;50.090;21.954;2022-09-09T14:11:44;155530.53;;;25.78;77.82
54503;BME280;40411;50.090;21.954;2022-09-09T14:14:13;155580.94;;;25.98;76.50
54503;BME280;40411;50.090;21.954;2022-09-09T14:16:40;155591.25;;;26.02;78.20
54503;BME280;40411;50.090;21.954;2022-09-09T14:19:08;155627.47;;;26.16;77.89
54503;BME280;40411;50.090;21.954;2022-09-09T14:21:34;155706.25;;;26.47;75.54
54503;BME280;40411;50.090;21.954;2022-09-09T14:24:00;155694.63;;;26.43;75.03
54503;BME280;40411;50.090;21.954;2022-09-09T14:26:26;155609.34;;;26.09;77.78
54503;BME280;40411;50.090;21.954;2022-09-09T14:28:52;155481.44;;;25.58;77.41
54503;BME280;40411;50.090;21.954;2022-09-09T14:31:18;155527.91;;;25.77;78.94
54503;BME280;40411;50.090;21.954;2022-09-09T14:33:44;155478.81;;;25.57;79.48
54503;BME280;40411;50.090;21.954;2022-09-09T14:36:10;155480.16;;;25.58;79.73